ACA7061 CYYC-CYEG
Flight info
| Callsign | ACA7061 |
|---|---|
| Flight time | N/A |
| Altitude | 21000 |
| Route | STAMP2/35L DCT BITGA Q995 OILRS OILRS2 |
| Aircraft | A321/M-SDE3FGHIRWY/LB1 |
Departure
| Time | 2026-05-06 02:50 |
|---|---|
| Airport | Calgary International Airport (CYYC) |
Arrival
| Time | N/A |
|---|---|
| Airport | Edmonton International Airport (CYEG) |
| Time | Latitude | Longitude | Altitude | Speed | Heading |
|---|---|---|---|---|---|
| 2026-05-06 02:31 | 51.13342 | -114.01542 | 3559 ft | 0 kts | 160° |
| 2026-05-06 02:38 | 51.13358 | -114.01550 | 3559 ft | 4 kts | 170° |
| 2026-05-06 02:38 | 51.13376 | -114.01553 | 3556 ft | 4 kts | 186° |
| 2026-05-06 02:38 | 51.13401 | -114.01542 | 3555 ft | 4 kts | 212° |
| 2026-05-06 02:38 | 51.13420 | -114.01514 | 3559 ft | 4 kts | 243° |
| 2026-05-06 02:39 | 51.13425 | -114.01486 | 3559 ft | 0 kts | 270° |
| 2026-05-06 02:42 | 51.13425 | -114.01487 | 3559 ft | 1 kts | 270° |
| 2026-05-06 02:42 | 51.13417 | -114.01578 | 3555 ft | 15 kts | 249° |
| 2026-05-06 02:43 | 51.13373 | -114.01718 | 3556 ft | 15 kts | 243° |
| 2026-05-06 02:43 | 51.13303 | -114.01849 | 3559 ft | 17 kts | 195° |
| 2026-05-06 02:43 | 51.13177 | -114.01853 | 3559 ft | 19 kts | 179° |
| 2026-05-06 02:43 | 51.13162 | -114.01853 | 3557 ft | 2 kts | 179° |
| 2026-05-06 02:44 | 51.13116 | -114.01839 | 3559 ft | 10 kts | 159° |
| 2026-05-06 02:44 | 51.13037 | -114.01799 | 3559 ft | 14 kts | 173° |
| 2026-05-06 02:44 | 51.12926 | -114.01795 | 3559 ft | 18 kts | 180° |
| 2026-05-06 02:44 | 51.12781 | -114.01794 | 3559 ft | 22 kts | 179° |
| 2026-05-06 02:45 | 51.12623 | -114.01790 | 3559 ft | 23 kts | 179° |
| 2026-05-06 02:45 | 51.12460 | -114.01785 | 3559 ft | 24 kts | 181° |
| 2026-05-06 02:45 | 51.12291 | -114.01793 | 3559 ft | 25 kts | 181° |
| 2026-05-06 02:45 | 51.12118 | -114.01796 | 3559 ft | 25 kts | 179° |
| 2026-05-06 02:46 | 51.11943 | -114.01794 | 3560 ft | 25 kts | 181° |
| 2026-05-06 02:46 | 51.11764 | -114.01798 | 3558 ft | 26 kts | 180° |
| 2026-05-06 02:46 | 51.11581 | -114.01793 | 3559 ft | 26 kts | 179° |
| 2026-05-06 02:46 | 51.11397 | -114.01799 | 3559 ft | 27 kts | 181° |
| 2026-05-06 02:47 | 51.11210 | -114.01799 | 3559 ft | 27 kts | 177° |
| 2026-05-06 02:47 | 51.11022 | -114.01797 | 3559 ft | 27 kts | 179° |
| 2026-05-06 02:47 | 51.10836 | -114.01792 | 3559 ft | 27 kts | 180° |
| 2026-05-06 02:47 | 51.10645 | -114.01797 | 3556 ft | 28 kts | 180° |
| 2026-05-06 02:48 | 51.10453 | -114.01796 | 3558 ft | 28 kts | 180° |
| 2026-05-06 02:48 | 51.10260 | -114.01799 | 3559 ft | 28 kts | 181° |
| 2026-05-06 02:48 | 51.10066 | -114.01797 | 3557 ft | 28 kts | 179° |
| 2026-05-06 02:48 | 51.09871 | -114.01794 | 3559 ft | 28 kts | 179° |
| 2026-05-06 02:49 | 51.09700 | -114.01846 | 3555 ft | 23 kts | 240° |
| 2026-05-06 02:49 | 51.09693 | -114.02090 | 3561 ft | 21 kts | 291° |
| 2026-05-06 02:49 | 51.09784 | -114.02141 | 3558 ft | 0 kts | 353° |
| 2026-05-06 02:49 | 51.09816 | -114.02145 | 3559 ft | 23 kts | 359° |
| 2026-05-06 02:50 | 51.10241 | -114.02139 | 3558 ft | 95 kts | 0° |
| 2026-05-06 02:50 | 51.11098 | -114.02133 | 3561 ft | 149 kts | 1° |
| 2026-05-06 02:50 | 51.12264 | -114.02127 | 3730 ft | 176 kts | 1° |
| 2026-05-06 02:50 | 51.13518 | -114.02186 | 4359 ft | 181 kts | 359° |
| 2026-05-06 02:51 | 51.14779 | -114.02267 | 5128 ft | 181 kts | 360° |
| 2026-05-06 02:51 | 51.16075 | -114.02348 | 5650 ft | 196 kts | 359° |
| 2026-05-06 02:51 | 51.17516 | -114.02309 | 5954 ft | 219 kts | 6° |
| 2026-05-06 02:51 | 51.19111 | -114.02095 | 6276 ft | 242 kts | 7° |
| 2026-05-06 02:52 | 51.20871 | -114.01813 | 6661 ft | 264 kts | 7° |
| 2026-05-06 02:52 | 51.22725 | -114.01505 | 7427 ft | 269 kts | 5° |
| 2026-05-06 02:52 | 51.24592 | -114.01201 | 8326 ft | 270 kts | 4° |
| 2026-05-06 02:52 | 51.26462 | -114.00902 | 9284 ft | 269 kts | 3° |
| 2026-05-06 02:53 | 51.28300 | -114.00610 | 10238 ft | 268 kts | 2° |
| 2026-05-06 02:53 | 51.30214 | -114.00315 | 10641 ft | 288 kts | 2° |
| 2026-05-06 02:53 | 51.32285 | -114.00001 | 10873 ft | 309 kts | 3° |
| 2026-05-06 02:53 | 51.34458 | -113.99668 | 11517 ft | 316 kts | 3° |
| 2026-05-06 02:54 | 51.36652 | -113.99330 | 12294 ft | 317 kts | 3° |
| 2026-05-06 02:54 | 51.38846 | -113.98987 | 13109 ft | 317 kts | 3° |
| 2026-05-06 02:54 | 51.41045 | -113.98639 | 13925 ft | 317 kts | 4° |
| 2026-05-06 02:54 | 51.43245 | -113.98290 | 14625 ft | 318 kts | 4° |
| 2026-05-06 02:55 | 51.45452 | -113.97944 | 15268 ft | 320 kts | 4° |
| 2026-05-06 02:55 | 51.47674 | -113.97600 | 15899 ft | 322 kts | 4° |
| 2026-05-06 02:55 | 51.49906 | -113.97131 | 16524 ft | 325 kts | 10° |
| 2026-05-06 02:55 | 51.52126 | -113.96359 | 17118 ft | 329 kts | 10° |
| 2026-05-06 02:56 | 51.54373 | -113.95578 | 17705 ft | 332 kts | 10° |
| 2026-05-06 02:56 | 51.56641 | -113.94816 | 18307 ft | 334 kts | 9° |
| 2026-05-06 02:56 | 51.58930 | -113.94036 | 18861 ft | 337 kts | 10° |
| 2026-05-06 02:56 | 51.61223 | -113.93210 | 19405 ft | 339 kts | 11° |
| 2026-05-06 02:57 | 51.63530 | -113.92332 | 19948 ft | 341 kts | 11° |
| 2026-05-06 02:57 | 51.65844 | -113.91421 | 20483 ft | 344 kts | 11° |
| 2026-05-06 02:57 | 51.68174 | -113.90487 | 20961 ft | 346 kts | 11° |
| 2026-05-06 02:57 | 51.70513 | -113.89543 | 21199 ft | 347 kts | 11° |
| 2026-05-06 02:58 | 51.72869 | -113.88592 | 21233 ft | 350 kts | 11° |
| 2026-05-06 02:58 | 51.75206 | -113.87648 | 21231 ft | 351 kts | 11° |
| 2026-05-06 02:58 | 51.77574 | -113.86695 | 21231 ft | 351 kts | 11° |
| 2026-05-06 02:58 | 51.79947 | -113.85739 | 21217 ft | 353 kts | 11° |
| 2026-05-06 02:59 | 51.82362 | -113.84769 | 21228 ft | 353 kts | 11° |
| 2026-05-06 02:59 | 51.84751 | -113.83810 | 21228 ft | 354 kts | 11° |
| 2026-05-06 02:59 | 51.87138 | -113.82850 | 21234 ft | 354 kts | 11° |
| 2026-05-06 02:59 | 51.89527 | -113.81886 | 21233 ft | 354 kts | 11° |
| 2026-05-06 03:00 | 51.91882 | -113.80932 | 21233 ft | 354 kts | 11° |
| 2026-05-06 03:00 | 51.94294 | -113.79950 | 21231 ft | 349 kts | 11° |
| 2026-05-06 03:00 | 51.96628 | -113.78997 | 21236 ft | 344 kts | 11° |
| 2026-05-06 03:00 | 51.98945 | -113.78054 | 21236 ft | 343 kts | 11° |
| 2026-05-06 03:01 | 52.01257 | -113.77117 | 21236 ft | 343 kts | 11° |
| 2026-05-06 03:01 | 52.03601 | -113.76173 | 21166 ft | 351 kts | 11° |
| 2026-05-06 03:01 | 52.05980 | -113.75213 | 21159 ft | 353 kts | 11° |
| 2026-05-06 03:01 | 52.08364 | -113.74242 | 21146 ft | 355 kts | 11° |
| 2026-05-06 03:02 | 52.10736 | -113.73274 | 21184 ft | 356 kts | 11° |
| 2026-05-06 03:02 | 52.13165 | -113.72281 | 21149 ft | 354 kts | 11° |
| 2026-05-06 03:02 | 52.15521 | -113.71316 | 21147 ft | 353 kts | 11° |
| 2026-05-06 03:02 | 52.17901 | -113.70345 | 21159 ft | 353 kts | 11° |
| 2026-05-06 03:03 | 52.20283 | -113.69373 | 21152 ft | 353 kts | 11° |
| 2026-05-06 03:03 | 52.22667 | -113.68401 | 21142 ft | 353 kts | 11° |
| 2026-05-06 03:03 | 52.25049 | -113.67426 | 21151 ft | 353 kts | 11° |
| 2026-05-06 03:03 | 52.27426 | -113.66449 | 21154 ft | 353 kts | 11° |
| 2026-05-06 03:04 | 52.29805 | -113.65471 | 21169 ft | 353 kts | 11° |
| 2026-05-06 03:04 | 52.32182 | -113.64492 | 21178 ft | 349 kts | 11° |
| 2026-05-06 03:04 | 52.34525 | -113.63524 | 21087 ft | 345 kts | 11° |
| 2026-05-06 03:04 | 52.36857 | -113.62557 | 20311 ft | 349 kts | 11° |
| 2026-05-06 03:05 | 52.39218 | -113.61581 | 19708 ft | 349 kts | 11° |
| 2026-05-06 03:05 | 52.41565 | -113.60608 | 19269 ft | 345 kts | 11° |
| 2026-05-06 03:05 | 52.43883 | -113.59648 | 18844 ft | 341 kts | 11° |
| 2026-05-06 03:05 | 52.46173 | -113.58703 | 18406 ft | 338 kts | 11° |
| 2026-05-06 03:06 | 52.48436 | -113.57765 | 17957 ft | 334 kts | 11° |
| 2026-05-06 03:06 | 52.50675 | -113.56833 | 17528 ft | 329 kts | 11° |
| 2026-05-06 03:06 | 52.52882 | -113.55912 | 17116 ft | 325 kts | 12° |
| 2026-05-06 03:06 | 52.55060 | -113.55006 | 16691 ft | 321 kts | 12° |
| 2026-05-06 03:07 | 52.57212 | -113.54111 | 16281 ft | 317 kts | 11° |
| 2026-05-06 03:07 | 52.59341 | -113.53225 | 15875 ft | 314 kts | 11° |
| 2026-05-06 03:07 | 52.61448 | -113.52366 | 15441 ft | 311 kts | 8° |
| 2026-05-06 03:07 | 52.63555 | -113.52038 | 15014 ft | 307 kts | 358° |
| 2026-05-06 03:08 | 52.65686 | -113.52210 | 14562 ft | 305 kts | 356° |
| 2026-05-06 03:08 | 52.67814 | -113.52392 | 14018 ft | 308 kts | 356° |
| 2026-05-06 03:08 | 52.69951 | -113.52570 | 13512 ft | 307 kts | 356° |
| 2026-05-06 03:08 | 52.72073 | -113.52745 | 13060 ft | 304 kts | 356° |
| 2026-05-06 03:09 | 52.74178 | -113.52919 | 12618 ft | 301 kts | 356° |
| 2026-05-06 03:09 | 52.76265 | -113.53093 | 12169 ft | 299 kts | 356° |
| 2026-05-06 03:09 | 52.78338 | -113.53268 | 11715 ft | 298 kts | 356° |
| 2026-05-06 03:09 | 52.80403 | -113.53440 | 11276 ft | 297 kts | 356° |
| 2026-05-06 03:10 | 52.82488 | -113.53613 | 11096 ft | 303 kts | 356° |
| 2026-05-06 03:10 | 52.84578 | -113.53784 | 11102 ft | 295 kts | 356° |
| 2026-05-06 03:10 | 52.86583 | -113.53947 | 10980 ft | 283 kts | 356° |
| 2026-05-06 03:10 | 52.88514 | -113.54105 | 10783 ft | 274 kts | 356° |
| 2026-05-06 03:11 | 52.90150 | -113.54241 | 10550 ft | 270 kts | 356° |
| 2026-05-06 03:11 | 52.92013 | -113.54396 | 10218 ft | 267 kts | 356° |
| 2026-05-06 03:11 | 52.93867 | -113.54551 | 9802 ft | 267 kts | 356° |
| 2026-05-06 03:11 | 52.95699 | -113.54701 | 9362 ft | 267 kts | 356° |
| 2026-05-06 03:12 | 52.97557 | -113.54853 | 8896 ft | 268 kts | 356° |
| 2026-05-06 03:12 | 52.99416 | -113.55008 | 8488 ft | 266 kts | 356° |
| 2026-05-06 03:12 | 53.01221 | -113.55161 | 8351 ft | 254 kts | 356° |
| 2026-05-06 03:12 | 53.02945 | -113.55309 | 8215 ft | 243 kts | 356° |